createdAt,value
2022-11-01T00:04:46.206Z,12.90
2022-11-01T00:09:49.144Z,12.84
2022-11-01T00:14:53.679Z,12.94
2022-11-01T00:19:56.427Z,12.97
2022-11-01T00:24:59.223Z,13.03
2022-11-01T00:30:03.346Z,13.06
2022-11-01T00:35:06.887Z,13.11
2022-11-01T00:40:10.726Z,13.06
2022-11-01T00:45:15.130Z,13.16
2022-11-01T00:50:18.337Z,13.15
2022-11-01T00:55:21.125Z,13.25
2022-11-01T01:00:25.504Z,13.30
2022-11-01T01:05:30.770Z,13.32
2022-11-01T01:10:33.884Z,13.35
2022-11-01T01:15:39.267Z,13.41
2022-11-01T01:20:42.087Z,13.37
2022-11-01T01:25:45.960Z,13.28
2022-11-01T01:30:50.075Z,13.40
2022-11-01T01:35:52.814Z,13.44
2022-11-01T01:40:55.698Z,13.38
2022-11-01T01:45:59.938Z,13.47
2022-11-01T01:51:06.043Z,13.57
2022-11-01T01:56:12.847Z,13.58
2022-11-01T02:01:17.376Z,13.61
2022-11-01T02:11:27.609Z,13.60
2022-11-01T02:17:01.329Z,13.61
2022-11-01T02:22:11.912Z,13.61
2022-11-01T02:27:20.828Z,13.70
2022-11-01T02:32:35.294Z,13.77
2022-11-01T02:37:43.757Z,13.67
2022-11-01T02:42:51.120Z,13.66
2022-11-01T02:47:56.131Z,13.70
2022-11-01T02:53:00.525Z,13.77
2022-11-01T02:58:06.639Z,13.85
2022-11-01T03:03:17.568Z,13.88
2022-11-01T03:08:23.876Z,13.90
2022-11-01T03:13:36.177Z,13.97
2022-11-01T03:18:51.276Z,13.99
2022-11-01T03:24:01.279Z,14.07
2022-11-01T03:29:09.377Z,14.07
2022-11-01T03:34:16.857Z,14.05
2022-11-01T03:39:23.714Z,14.05
2022-11-01T03:44:30.543Z,13.98
2022-11-01T03:49:34.779Z,14.05
2022-11-01T03:54:37.598Z,14.01
2022-11-01T03:59:40.484Z,14.02
2022-11-01T04:04:44.617Z,14.07
2022-11-01T04:09:47.764Z,14.15
2022-11-01T04:15:08.162Z,14.03
2022-11-01T04:20:30.206Z,14.10
2022-11-01T04:25:34.832Z,14.07
2022-11-01T04:30:37.677Z,14.05
2022-11-01T04:35:42.065Z,14.02
2022-11-01T04:40:45.013Z,14.04
2022-11-01T04:45:55.128Z,13.99
2022-11-01T04:51:02.383Z,14.02
2022-11-01T04:56:08.889Z,14.04
2022-11-01T05:01:12.206Z,13.87
2022-11-01T05:06:16.530Z,13.83
2022-11-01T05:11:25.980Z,13.88
2022-11-01T05:16:29.142Z,13.89
2022-11-01T05:21:33.234Z,13.98
2022-11-01T05:26:38.158Z,13.93
2022-11-01T05:31:42.850Z,13.97
2022-11-01T05:36:48.370Z,13.90
2022-11-01T05:41:51.504Z,13.95
2022-11-01T05:46:54.251Z,13.97
2022-11-01T05:51:58.555Z,13.88
2022-11-01T05:57:01.411Z,13.98
2022-11-01T06:02:04.260Z,13.97
2022-11-01T06:07:08.409Z,14.01
2022-11-01T06:12:11.150Z,14.01
2022-11-01T06:17:14.051Z,13.97
2022-11-01T06:22:18.174Z,13.99
2022-11-01T06:27:20.995Z,14.18
2022-11-01T06:32:23.860Z,14.24
2022-11-01T06:37:28.053Z,14.21
2022-11-01T06:42:30.802Z,14.27
2022-11-01T06:47:33.598Z,14.32
2022-11-01T06:52:37.763Z,14.33
2022-11-01T06:57:40.641Z,14.30
2022-11-01T07:02:43.664Z,14.26
2022-11-01T07:07:47.838Z,14.30
2022-11-01T07:12:50.729Z,14.33
2022-11-01T07:17:56.247Z,14.47
2022-11-01T07:23:02.019Z,14.63
2022-11-01T07:28:05.537Z,14.69
2022-11-01T07:33:08.805Z,14.79
2022-11-01T07:38:13.735Z,14.90
2022-11-01T07:43:16.945Z,15.09
2022-11-01T07:48:20.379Z,15.17
2022-11-01T07:53:24.824Z,15.21
2022-11-01T07:58:27.614Z,15.23
2022-11-01T08:03:30.837Z,15.49
2022-11-01T08:08:34.927Z,15.63
2022-11-01T08:13:37.703Z,15.59
2022-11-01T08:18:40.458Z,15.65
2022-11-01T08:23:44.680Z,15.60
2022-11-01T08:28:47.468Z,15.89
2022-11-01T08:33:51.731Z,16.00
2022-11-01T08:38:55.887Z,16.16
2022-11-01T08:43:59.171Z,16.29
2022-11-01T08:49:01.881Z,16.27
2022-11-01T08:54:07.692Z,16.57
2022-11-01T08:59:10.865Z,16.78
2022-11-01T09:04:13.833Z,16.82
2022-11-01T09:09:17.932Z,17.01
2022-11-01T09:14:23.911Z,17.21
2022-11-01T09:19:26.946Z,17.30
2022-11-01T09:24:31.037Z,17.36
2022-11-01T09:34:36.640Z,17.60
2022-11-01T09:39:40.727Z,17.86
2022-11-01T09:44:46.108Z,17.64
2022-11-01T09:49:52.858Z,17.57
2022-11-01T09:54:57.051Z,17.44
2022-11-01T10:00:06.797Z,17.47
2022-11-01T10:05:28.365Z,17.58
2022-11-01T10:10:39.846Z,17.67
2022-11-01T10:15:56.453Z,17.39
2022-11-01T10:21:03.492Z,17.45
2022-11-01T10:26:09.219Z,17.62
2022-11-01T10:31:17.164Z,17.46
2022-11-01T10:36:24.300Z,17.50
2022-11-01T10:41:34.274Z,17.76
2022-11-01T10:46:41.269Z,17.41
2022-11-01T10:51:46.029Z,17.43
2022-11-01T10:56:53.934Z,17.24
2022-11-01T11:01:57.380Z,17.22
2022-11-01T11:07:00.245Z,17.22
2022-11-01T11:12:08.090Z,17.08
2022-11-01T11:17:18.995Z,16.86
2022-11-01T11:22:23.350Z,16.83
2022-11-01T11:27:31.082Z,16.76
2022-11-01T11:32:35.382Z,16.92
2022-11-01T11:37:40.080Z,16.72
2022-11-01T11:42:45.935Z,16.72
2022-11-01T11:47:48.832Z,16.70
2022-11-01T11:52:57.967Z,16.74
2022-11-01T11:58:03.160Z,16.72
2022-11-01T12:03:08.944Z,16.60
2022-11-01T12:08:26.874Z,16.56
2022-11-01T12:13:35.433Z,16.50
2022-11-01T12:18:47.590Z,16.60
2022-11-01T12:23:53.338Z,16.46
2022-11-01T12:29:09.870Z,16.47
2022-11-01T12:34:18.646Z,16.41
2022-11-01T12:39:40.205Z,16.35
2022-11-01T12:44:49.252Z,16.35
2022-11-01T12:49:56.732Z,16.40
2022-11-01T12:55:07.361Z,16.39
2022-11-01T13:00:16.593Z,16.31
2022-11-01T13:05:23.344Z,16.29
2022-11-01T13:10:33.419Z,16.33
2022-11-01T13:15:49.985Z,16.33
2022-11-01T13:20:58.824Z,16.47
2022-11-01T13:26:08.516Z,16.35
2022-11-01T13:31:23.592Z,16.57
2022-11-01T13:36:35.861Z,16.81
2022-11-01T13:41:45.642Z,16.92
2022-11-01T13:47:17.533Z,17.08
2022-11-01T13:52:22.743Z,17.13
2022-11-01T13:57:27.520Z,16.90
2022-11-01T14:02:49.100Z,16.83
2022-11-01T14:08:13.380Z,16.44
2022-11-01T14:13:17.648Z,16.20
2022-11-01T14:18:22.667Z,15.97
2022-11-01T14:23:59.635Z,15.89
2022-11-01T14:29:02.979Z,15.79
2022-11-01T14:34:10.066Z,15.82
2022-11-01T14:39:19.187Z,15.88
2022-11-01T14:44:27.042Z,15.67
2022-11-01T14:49:37.076Z,15.59
2022-11-01T14:54:47.170Z,15.51
2022-11-01T14:59:50.856Z,15.44
2022-11-01T15:05:00.977Z,15.24
2022-11-01T15:10:07.429Z,15.20
2022-11-01T15:15:15.561Z,15.05
2022-11-01T15:20:21.011Z,15.15
2022-11-01T15:25:27.456Z,14.98
2022-11-01T15:30:33.182Z,14.95
2022-11-01T15:35:37.491Z,14.76
2022-11-01T15:40:41.008Z,14.85
2022-11-01T15:45:43.977Z,14.71
2022-11-01T15:50:51.597Z,14.59
2022-11-01T15:55:59.095Z,14.53
2022-11-01T16:01:09.987Z,14.47
2022-11-01T16:06:17.879Z,14.52
2022-11-01T16:11:23.332Z,14.29
2022-11-01T16:16:26.138Z,14.37
2022-11-01T16:21:34.035Z,14.39
2022-11-01T16:26:54.917Z,14.36
2022-11-01T16:32:09.761Z,14.26
2022-11-01T16:37:25.747Z,14.06
2022-11-01T16:42:29.499Z,13.93
2022-11-01T16:47:41.002Z,13.83
2022-11-01T16:52:45.201Z,13.97
2022-11-01T16:57:48.141Z,14.05
2022-11-01T17:02:50.988Z,13.85
2022-11-01T17:07:56.521Z,13.72
2022-11-01T17:13:14.477Z,13.63
2022-11-01T17:18:25.588Z,13.57
2022-11-01T17:23:35.123Z,13.53
2022-11-01T17:28:38.054Z,13.48
2022-11-01T17:33:41.113Z,13.60
2022-11-01T17:38:59.966Z,13.61
2022-11-01T17:44:03.061Z,13.74
2022-11-01T17:49:07.888Z,13.76
2022-11-01T17:54:12.180Z,13.69
2022-11-01T17:59:15.262Z,13.65
2022-11-01T18:04:18.327Z,13.55
2022-11-01T18:09:25.525Z,13.58
2022-11-01T18:17:26.967Z,13.47
2022-11-01T18:21:32.834Z,13.42
2022-11-01T18:27:24.150Z,13.47
2022-11-01T18:32:33.831Z,13.54
2022-11-01T18:37:51.892Z,13.51
2022-11-01T18:43:06.037Z,13.41
2022-11-01T18:48:15.763Z,13.38
2022-11-01T18:53:21.671Z,13.29
2022-11-01T18:58:41.268Z,13.23
2022-11-01T19:04:07.185Z,13.22
2022-11-01T19:15:10.779Z,12.96
2022-11-01T19:20:25.222Z,12.82
2022-11-01T19:25:31.434Z,12.74
2022-11-01T19:30:35.729Z,12.72
2022-11-01T19:35:38.738Z,12.80
2022-11-01T19:40:47.378Z,12.71
2022-11-01T19:45:57.700Z,12.69
2022-11-01T19:51:03.419Z,12.70
2022-11-01T19:56:10.227Z,12.71
2022-11-01T20:01:33.404Z,12.74
2022-11-01T20:06:49.702Z,12.80
2022-11-01T20:12:05.978Z,12.91
2022-11-01T20:17:11.498Z,12.91
2022-11-01T20:22:14.548Z,12.79
2022-11-01T20:27:18.230Z,12.80
2022-11-01T20:32:22.636Z,12.73
2022-11-01T20:37:28.813Z,12.63
2022-11-01T20:42:32.187Z,12.59
2022-11-01T20:47:43.885Z,12.53
2022-11-01T20:52:49.602Z,12.51
2022-11-01T20:57:53.303Z,12.49
2022-11-01T21:02:58.558Z,12.52
2022-11-01T21:08:12.748Z,12.81
2022-11-01T21:13:23.807Z,12.93
2022-11-01T21:18:50.709Z,12.92
2022-11-01T21:23:53.962Z,13.00
2022-11-01T21:29:02.127Z,12.98
2022-11-01T21:34:25.494Z,12.93
2022-11-01T21:39:31.256Z,12.80
2022-11-01T21:44:39.985Z,12.88
2022-11-01T21:49:44.562Z,12.86
2022-11-01T21:54:48.695Z,12.88
2022-11-01T21:59:51.901Z,12.82
2022-11-01T22:04:56.070Z,12.86
2022-11-01T22:09:58.941Z,12.75
2022-11-01T22:15:02.949Z,12.70
2022-11-01T22:20:07.939Z,12.71
2022-11-01T22:25:11.187Z,12.72
2022-11-01T22:30:14.170Z,12.72
2022-11-01T22:35:18.398Z,12.62
2022-11-01T22:40:21.283Z,12.67
2022-11-01T22:45:24.549Z,12.75
2022-11-01T22:50:30.046Z,12.70
2022-11-01T22:55:41.092Z,12.70
2022-11-01T23:00:47.157Z,12.66
2022-11-01T23:05:53.745Z,12.55
2022-11-01T23:10:57.295Z,12.57
2022-11-01T23:16:01.581Z,12.58
2022-11-01T23:21:08.090Z,12.61
2022-11-01T23:26:12.736Z,12.48
2022-11-01T23:31:17.509Z,12.43
2022-11-01T23:36:27.425Z,12.41
2022-11-01T23:41:34.983Z,12.29
2022-11-01T23:46:37.998Z,12.28
2022-11-01T23:51:42.416Z,12.41
2022-11-01T23:56:45.596Z,12.44
